createdAt,value
2018-11-04T00:00:53.520Z,104
2018-11-04T00:01:53.616Z,95.4
2018-11-04T00:02:53.692Z,94
2018-11-04T00:03:53.557Z,91.3
2018-11-04T00:04:53.599Z,102.2
2018-11-04T00:05:53.580Z,104.4
2018-11-04T00:06:53.584Z,107.6
2018-11-04T00:07:53.686Z,117.1
2018-11-04T00:09:03.452Z,113.1
2018-11-04T00:09:53.624Z,111.7
2018-11-04T00:10:53.623Z,80
2018-11-04T00:11:53.648Z,97.5
2018-11-04T00:12:53.523Z,106.7
2018-11-04T00:13:53.643Z,117.9
2018-11-04T00:14:53.812Z,124
2018-11-04T00:15:53.519Z,123.3
2018-11-04T00:16:53.526Z,140.1
2018-11-04T00:17:53.586Z,136.3
2018-11-04T00:18:53.568Z,130.9
2018-11-04T00:19:53.611Z,139.5
2018-11-04T00:20:53.704Z,130.5
2018-11-04T00:21:53.527Z,127.5
2018-11-04T00:22:53.558Z,123.8
2018-11-04T00:23:53.701Z,124.4
2018-11-04T00:24:53.568Z,124.9
2018-11-04T00:25:53.576Z,123
2018-11-04T00:26:53.728Z,120.2
2018-11-04T00:27:53.690Z,122.8
2018-11-04T00:28:53.549Z,122.4
2018-11-04T00:29:53.802Z,119.6
2018-11-04T00:30:53.525Z,126.9
2018-11-04T00:31:53.584Z,131
2018-11-04T00:32:53.521Z,130.3
2018-11-04T00:33:53.566Z,118.5
2018-11-04T00:34:53.487Z,111.5
2018-11-04T00:35:53.494Z,119
2018-11-04T00:36:53.532Z,122.3
2018-11-04T00:37:53.474Z,123.1
2018-11-04T00:38:53.455Z,117.2
2018-11-04T00:39:53.484Z,119.6
2018-11-04T00:40:53.530Z,121.4
2018-11-04T00:41:53.540Z,119.6
2018-11-04T00:42:53.522Z,121.7
2018-11-04T00:43:53.579Z,123.1
2018-11-04T00:44:53.456Z,120
2018-11-04T00:45:53.475Z,100.1
2018-11-04T00:46:53.532Z,101.6
2018-11-04T00:47:55.306Z,93.5
2018-11-04T00:48:53.551Z,90.7
2018-11-04T00:49:53.441Z,104.7
2018-11-04T00:50:53.494Z,117.3
2018-11-04T00:51:53.589Z,116.5
2018-11-04T00:52:53.478Z,121.2
2018-11-04T00:53:53.471Z,123.2
2018-11-04T00:54:53.513Z,124.2
2018-11-04T00:55:53.519Z,124.6
2018-11-04T00:56:53.468Z,122.5
2018-11-04T00:57:53.539Z,113.9
2018-11-04T00:58:53.463Z,110.3
2018-11-04T00:59:53.476Z,113.4
2018-11-04T01:00:53.562Z,119.9
2018-11-04T01:01:53.478Z,122
2018-11-04T01:02:53.543Z,122.4
2018-11-04T01:03:53.476Z,123.8
2018-11-04T01:04:53.520Z,104.1
2018-11-04T01:05:53.522Z,95.3
2018-11-04T01:06:53.458Z,102
2018-11-04T01:07:53.458Z,89.9
2018-11-04T01:08:53.598Z,102.7
2018-11-04T01:09:53.522Z,111.7
2018-11-04T01:10:53.460Z,94.3
2018-11-04T01:11:53.712Z,99.4
2018-11-04T01:12:53.449Z,89.7
2018-11-04T01:13:53.499Z,97.9
2018-11-04T01:14:53.476Z,118
2018-11-04T01:15:53.465Z,99
2018-11-04T01:16:53.517Z,94
2018-11-04T01:17:53.428Z,108.8
2018-11-04T01:18:53.463Z,105.8
2018-11-04T01:19:53.579Z,111.1
2018-11-04T01:20:54.420Z,110.8
2018-11-04T01:21:53.502Z,104.6
2018-11-04T01:22:53.461Z,101.4
2018-11-04T01:23:53.527Z,114.4
2018-11-04T01:24:53.474Z,109.2
2018-11-04T01:25:53.461Z,110.1
2018-11-04T01:26:53.506Z,106.9
2018-11-04T01:27:53.523Z,105.7
2018-11-04T01:28:53.471Z,110.2
2018-11-04T01:29:53.460Z,114.6
2018-11-04T01:30:53.552Z,104.5
2018-11-04T01:31:53.447Z,111.4
2018-11-04T01:32:53.532Z,108.6
2018-11-04T01:33:53.505Z,117.4
2018-11-04T01:34:53.432Z,123.4
2018-11-04T01:35:53.522Z,111
2018-11-04T01:36:53.524Z,98.5
2018-11-04T01:37:53.438Z,113.7
2018-11-04T01:38:53.445Z,118.6
2018-11-04T01:39:53.556Z,116.1
2018-11-04T01:40:53.555Z,120.9
2018-11-04T01:41:53.457Z,121.9
2018-11-04T01:42:53.464Z,122.4
2018-11-04T01:43:53.506Z,109.9
2018-11-04T01:44:53.475Z,105.4
2018-11-04T01:45:53.440Z,115.5
2018-11-04T01:46:53.445Z,114.5
2018-11-04T01:47:55.982Z,113.3
2018-11-04T01:48:53.499Z,105.4
2018-11-04T01:49:53.454Z,107.4
2018-11-04T01:50:53.481Z,108.1
2018-11-04T01:51:53.474Z,111.6
2018-11-04T01:52:53.426Z,118.4
2018-11-04T01:53:53.555Z,120
2018-11-04T01:54:53.531Z,121.6
2018-11-04T01:55:53.441Z,114.2
2018-11-04T01:56:53.487Z,106
2018-11-04T01:57:53.503Z,113.4
2018-11-04T01:58:53.458Z,106.4
2018-11-04T01:59:53.451Z,105.8
2018-11-04T02:00:53.445Z,105.1
2018-11-04T02:01:53.580Z,112.7
2018-11-04T02:02:53.530Z,113
2018-11-04T02:03:53.707Z,117.6
2018-11-04T02:04:53.434Z,111.7
2018-11-04T02:05:53.430Z,119.4
2018-11-04T02:06:53.505Z,118.3
2018-11-04T02:07:53.458Z,90.4
2018-11-04T02:08:53.509Z,96.9
2018-11-04T02:09:53.469Z,109.6
2018-11-04T02:10:53.434Z,118.2
2018-11-04T02:11:53.503Z,117.4
2018-11-04T02:12:53.482Z,121.3
2018-11-04T02:13:53.499Z,123.3
2018-11-04T02:14:53.423Z,113.6
2018-11-04T02:15:53.444Z,111
2018-11-04T02:16:53.506Z,103.7
2018-11-04T02:17:53.447Z,106.1
2018-11-04T02:18:53.492Z,115.9
2018-11-04T02:19:53.490Z,112.7
2018-11-04T02:20:53.481Z,114.7
2018-11-04T02:21:53.525Z,109.3
2018-11-04T02:22:53.440Z,115.3
2018-11-04T02:23:53.468Z,121.9
2018-11-04T02:24:53.460Z,123.2
2018-11-04T02:25:54.711Z,119.1
2018-11-04T02:26:53.425Z,128
2018-11-04T02:27:53.803Z,127.8
2018-11-04T02:28:53.478Z,126.3
2018-11-04T02:29:53.434Z,125.6
2018-11-04T02:30:53.421Z,124.3
2018-11-04T02:31:53.418Z,116.8
2018-11-04T02:32:53.556Z,102.8
2018-11-04T02:33:53.445Z,90.2
2018-11-04T02:34:53.446Z,93.1
2018-11-04T02:35:53.435Z,109.4
2018-11-04T02:36:53.635Z,118
2018-11-04T02:37:53.515Z,121.8
2018-11-04T02:38:53.456Z,123.5
2018-11-04T02:39:53.492Z,103.8
2018-11-04T02:40:53.445Z,97.2
2018-11-04T02:41:53.430Z,91.5
2018-11-04T02:42:53.491Z,76.9
2018-11-04T02:43:53.536Z,74.4
2018-11-04T02:44:53.475Z,82.9
2018-11-04T02:45:53.452Z,94.3
2018-11-04T02:46:53.567Z,111.8
2018-11-04T02:47:58.470Z,107.9
2018-11-04T02:48:53.493Z,102
2018-11-04T02:49:53.443Z,65
2018-11-04T02:50:53.412Z,77.9
2018-11-04T02:51:53.437Z,83.4
2018-11-04T02:52:53.426Z,86.4
2018-11-04T02:53:53.554Z,75.6
2018-11-04T02:54:53.443Z,87.3
2018-11-04T02:55:53.426Z,83.9
2018-11-04T02:56:53.472Z,81.8
2018-11-04T02:57:53.435Z,59.5
2018-11-04T02:58:53.528Z,45.8
2018-11-04T02:59:53.437Z,39.9
2018-11-04T03:00:53.452Z,37.2
2018-11-04T03:01:53.679Z,36
2018-11-04T03:02:53.487Z,35.5
2018-11-04T03:03:53.426Z,35.2
2018-11-04T03:04:53.434Z,35.1
2018-11-04T03:05:53.532Z,35
2018-11-04T03:06:53.538Z,35
2018-11-04T03:07:53.406Z,70.1
2018-11-04T03:08:53.407Z,103.6
2018-11-04T03:09:53.422Z,116.4
2018-11-04T03:10:53.413Z,121.2
2018-11-04T03:11:53.510Z,123.3
2018-11-04T03:12:53.443Z,124.2
2018-11-04T03:13:53.486Z,108.4
2018-11-04T03:14:53.428Z,95.3
2018-11-04T03:15:53.414Z,111.7
2018-11-04T03:16:53.403Z,119
2018-11-04T03:17:53.432Z,109.9
2018-11-04T03:18:53.484Z,118.2
2018-11-04T03:19:53.427Z,111.1
2018-11-04T03:20:53.515Z,112.2
2018-11-04T03:21:53.438Z,94.5
2018-11-04T03:22:53.448Z,91.4
2018-11-04T03:23:53.469Z,90.5
2018-11-04T03:24:53.578Z,84.8
2018-11-04T03:25:55.109Z,82.2
2018-11-04T03:26:53.402Z,81
2018-11-04T03:27:53.406Z,80.5
2018-11-04T03:28:53.486Z,80.2
2018-11-04T03:29:53.489Z,80.1
2018-11-04T03:30:53.448Z,80.7
2018-11-04T03:31:53.441Z,78
2018-11-04T03:32:53.510Z,79
2018-11-04T03:33:53.470Z,79.5
2018-11-04T03:34:53.412Z,68.4
2018-11-04T03:35:53.449Z,52
2018-11-04T03:36:53.425Z,81.7
2018-11-04T03:37:53.546Z,90.6
2018-11-04T03:38:53.420Z,95.4
2018-11-04T03:39:53.497Z,92.7
2018-11-04T03:40:53.464Z,87.5
2018-11-04T03:41:53.415Z,85.2
2018-11-04T03:42:53.409Z,79.8
2018-11-04T03:43:53.405Z,79.2
2018-11-04T03:44:53.487Z,83.2
2018-11-04T03:45:53.467Z,88.1
2018-11-04T03:46:53.411Z,88.2
2018-11-04T03:47:53.418Z,83.7
2018-11-04T03:48:53.453Z,89.2
2018-11-04T03:49:53.411Z,98.9
2018-11-04T03:50:53.476Z,89.3
2018-11-04T03:51:53.449Z,75.1
2018-11-04T03:52:53.408Z,66.4
2018-11-04T03:53:53.452Z,74.4
2018-11-04T03:54:53.429Z,77.5
2018-11-04T03:55:53.417Z,83.4
2018-11-04T03:56:53.476Z,90.5
2018-11-04T03:57:53.392Z,94.8
2018-11-04T03:58:53.409Z,97
2018-11-04T03:59:53.406Z,88.4
2018-11-04T04:00:53.471Z,80.5
2018-11-04T04:01:53.477Z,85.5
2018-11-04T04:02:53.397Z,70.3
2018-11-04T04:03:53.413Z,74.6
2018-11-04T04:04:53.413Z,79.4
2018-11-04T04:05:53.506Z,74.7
2018-11-04T04:06:53.569Z,76.1
2018-11-04T04:07:53.452Z,77.6
2018-11-04T04:08:53.391Z,72.9
2018-11-04T04:09:53.394Z,76.9
2018-11-04T04:10:53.420Z,76.4
2018-11-04T04:11:53.455Z,85.1
2018-11-04T04:12:53.433Z,83.8
2018-11-04T04:13:53.396Z,81.8
2018-11-04T04:14:53.473Z,82
2018-11-04T04:15:53.395Z,81
2018-11-04T04:16:53.392Z,84
2018-11-04T04:17:53.398Z,81.9
2018-11-04T04:18:53.392Z,80.9
2018-11-04T04:19:53.512Z,88.9
2018-11-04T04:20:53.427Z,84.1
2018-11-04T04:21:53.454Z,97.1
2018-11-04T04:22:53.459Z,82
2018-11-04T04:23:53.405Z,54.7
2018-11-04T04:24:53.424Z,43.1
2018-11-04T04:25:57.033Z,38.7
2018-11-04T04:26:53.473Z,39.3
2018-11-04T04:27:53.400Z,73.4
2018-11-04T04:28:53.408Z,79.6
2018-11-04T04:29:53.471Z,79.8
2018-11-04T04:30:53.400Z,79.9
2018-11-04T04:31:53.453Z,80
2018-11-04T04:32:53.381Z,80
2018-11-04T04:33:53.407Z,80
2018-11-04T04:34:53.391Z,80
2018-11-04T04:35:53.442Z,80
2018-11-04T04:36:53.407Z,80
2018-11-04T04:37:53.362Z,80
2018-11-04T04:38:53.411Z,80
2018-11-04T04:39:53.426Z,80
2018-11-04T04:40:53.496Z,80
2018-11-04T04:41:53.371Z,80
2018-11-04T04:42:53.382Z,80
2018-11-04T04:43:53.376Z,80
2018-11-04T04:44:53.455Z,80
2018-11-04T04:45:53.445Z,80
2018-11-04T04:46:53.399Z,80
2018-11-04T04:47:55.658Z,80
2018-11-04T04:48:53.394Z,80
2018-11-04T04:49:53.415Z,80
2018-11-04T04:50:53.399Z,80
2018-11-04T04:51:53.444Z,80
2018-11-04T04:52:53.392Z,80
2018-11-04T04:53:53.386Z,80
2018-11-04T04:54:53.452Z,80
2018-11-04T04:55:53.388Z,80
2018-11-04T04:56:53.442Z,80
2018-11-04T04:57:53.376Z,80
2018-11-04T04:58:53.383Z,78.5
2018-11-04T04:59:53.418Z,55.1
2018-11-04T05:00:53.493Z,44
2018-11-04T05:01:53.379Z,39.1
2018-11-04T05:02:53.479Z,36.9
2018-11-04T05:03:53.367Z,35.9
2018-11-04T05:04:53.375Z,35.4
2018-11-04T05:05:53.395Z,35.2
2018-11-04T05:06:53.381Z,35.1
2018-11-04T05:07:53.455Z,35
2018-11-04T05:08:53.399Z,35
2018-11-04T05:09:53.360Z,35
2018-11-04T05:10:53.398Z,68.1
2018-11-04T05:11:53.379Z,101.3
2018-11-04T05:12:53.397Z,115.1
2018-11-04T05:13:53.505Z,120.7
2018-11-04T05:14:53.382Z,123.1
2018-11-04T05:15:53.400Z,116.2
2018-11-04T05:16:53.368Z,108.7
2018-11-04T05:17:53.505Z,105.4
2018-11-04T05:18:53.372Z,113.5
2018-11-04T05:19:53.349Z,119.8
2018-11-04T05:20:53.383Z,122.5
2018-11-04T05:21:53.349Z,111.1
2018-11-04T05:22:53.438Z,94
2018-11-04T05:23:53.433Z,86.3
2018-11-04T05:24:53.378Z,82.8
2018-11-04T05:25:53.573Z,81.3
2018-11-04T05:26:53.358Z,80.6
2018-11-04T05:27:53.445Z,80.3
2018-11-04T05:28:53.374Z,80.1
2018-11-04T05:29:53.344Z,80.1
2018-11-04T05:30:53.408Z,80
2018-11-04T05:31:53.420Z,80
2018-11-04T05:32:53.373Z,92.2
2018-11-04T05:33:53.429Z,110.2
2018-11-04T05:34:53.398Z,118.5
2018-11-04T05:35:53.365Z,122
2018-11-04T05:36:53.443Z,110.8
2018-11-04T05:37:53.380Z,93.9
2018-11-04T05:38:53.392Z,86.2
2018-11-04T05:39:53.392Z,82.9
2018-11-04T05:40:53.399Z,81
2018-11-04T05:41:53.454Z,80.5
2018-11-04T05:42:53.368Z,80.2
2018-11-04T05:43:53.379Z,84.2
2018-11-04T05:44:53.415Z,94.6
2018-11-04T05:45:53.362Z,86.6
2018-11-04T05:46:53.466Z,83.1
2018-11-04T05:47:56.320Z,81.9
2018-11-04T05:48:53.418Z,80.9
2018-11-04T05:49:53.408Z,80.4
2018-11-04T05:50:53.365Z,80.2
2018-11-04T05:51:53.425Z,80.1
2018-11-04T05:52:53.364Z,80
2018-11-04T05:53:53.428Z,80
2018-11-04T05:54:53.367Z,80
2018-11-04T05:55:53.402Z,83
2018-11-04T05:56:53.440Z,81.4
2018-11-04T05:57:53.396Z,81.7
2018-11-04T05:58:53.653Z,80.8
2018-11-04T05:59:53.355Z,80.4
2018-11-04T06:00:53.355Z,80.2
2018-11-04T06:01:53.447Z,62.8
2018-11-04T06:02:53.356Z,47.5
2018-11-04T06:03:55.685Z,40.6
2018-11-04T06:04:53.346Z,43.9
2018-11-04T06:05:53.415Z,39.1
2018-11-04T06:06:53.428Z,36.9
2018-11-04T06:07:53.373Z,35.9
2018-11-04T06:08:53.427Z,35.4
2018-11-04T06:09:53.323Z,35.2
2018-11-04T06:10:53.433Z,38.1
2018-11-04T06:11:53.396Z,60.7
2018-11-04T06:12:53.356Z,71.3
2018-11-04T06:13:53.439Z,76.1
2018-11-04T06:14:55.865Z,78.2
2018-11-04T06:15:53.347Z,79.2
2018-11-04T06:16:53.346Z,79.6
2018-11-04T06:17:53.388Z,79.8
2018-11-04T06:18:53.352Z,79.9
2018-11-04T06:19:53.444Z,80
2018-11-04T06:20:53.378Z,80
2018-11-04T06:21:53.345Z,68.6
2018-11-04T06:22:53.442Z,49.8
2018-11-04T06:23:53.382Z,41.8
2018-11-04T06:24:53.395Z,40.9
2018-11-04T06:25:57.314Z,37.7
2018-11-04T06:26:53.339Z,56.7
2018-11-04T06:27:53.324Z,42.4
2018-11-04T06:28:53.336Z,47.3
2018-11-04T06:29:53.420Z,60.9
2018-11-04T06:30:53.378Z,50.2
2018-11-04T06:31:53.351Z,41.7
2018-11-04T06:32:53.426Z,23
2018-11-04T06:33:53.371Z,12.9
2018-11-04T06:34:53.402Z,0.2
2018-11-04T06:35:53.342Z,354.6
2018-11-04T06:36:56.556Z,27.1
2018-11-04T06:37:53.354Z,44.3
2018-11-04T06:38:53.333Z,51.7
2018-11-04T06:39:53.401Z,54.9
2018-11-04T06:40:53.468Z,61.8
2018-11-04T06:41:53.399Z,71.9
2018-11-04T06:42:53.412Z,76.3
2018-11-04T06:43:53.324Z,78.2
2018-11-04T06:44:53.359Z,79.2
2018-11-04T06:45:53.442Z,79.6
2018-11-04T06:46:53.605Z,79.8
2018-11-04T06:47:54.822Z,79.9
2018-11-04T06:48:53.365Z,80
2018-11-04T06:49:53.358Z,80
2018-11-04T06:50:53.362Z,82.7
2018-11-04T06:51:53.384Z,81.2
2018-11-04T06:52:53.346Z,80.6
2018-11-04T06:53:53.393Z,76.6
2018-11-04T06:54:53.379Z,76.2
2018-11-04T06:55:53.358Z,78.3
2018-11-04T06:56:53.337Z,79.2
2018-11-04T06:57:53.405Z,79.6
2018-11-04T06:58:53.351Z,79.8
2018-11-04T06:59:53.540Z,79.9
2018-11-04T07:00:53.334Z,80
2018-11-04T07:01:53.351Z,85.6
2018-11-04T07:02:53.395Z,104.6
2018-11-04T07:03:54.658Z,97
2018-11-04T07:04:53.303Z,87.5
2018-11-04T07:05:53.405Z,95.9
2018-11-04T07:06:53.362Z,120.6
2018-11-04T07:07:53.334Z,113.5
2018-11-04T07:08:53.545Z,100.1
2018-11-04T07:09:53.369Z,88.6
2018-11-04T07:10:53.441Z,84
2018-11-04T07:11:53.338Z,84.8
2018-11-04T07:12:53.461Z,96.9
2018-11-04T07:13:53.360Z,92.4
2018-11-04T07:14:53.377Z,79.9
2018-11-04T07:15:53.450Z,82.7
2018-11-04T07:16:53.395Z,85.4
2018-11-04T07:17:53.392Z,85.8
2018-11-04T07:18:53.349Z,82.6
2018-11-04T07:19:53.492Z,91.1
2018-11-04T07:20:53.571Z,85
2018-11-04T07:21:53.340Z,82.3
2018-11-04T07:22:53.342Z,84.2
2018-11-04T07:23:53.361Z,98.8
2018-11-04T07:24:53.425Z,105.9
2018-11-04T07:25:55.241Z,103.3
2018-11-04T07:26:53.811Z,90.8
2018-11-04T07:27:53.418Z,84.8
2018-11-04T07:28:53.343Z,82.3
2018-11-04T07:29:53.390Z,72.2
2018-11-04T07:30:53.320Z,76.5
2018-11-04T07:31:53.408Z,78.4
2018-11-04T07:32:53.409Z,79.2
2018-11-04T07:33:53.405Z,79.6
2018-11-04T07:34:53.342Z,83.1
2018-11-04T07:35:53.347Z,91.2
2018-11-04T07:36:53.408Z,109
2018-11-04T07:37:53.357Z,112.6
2018-11-04T07:38:53.375Z,68.5
2018-11-04T07:39:53.415Z,84
2018-11-04T07:40:53.354Z,108.1
2018-11-04T07:41:53.356Z,93.8
2018-11-04T07:42:53.332Z,99.2
2018-11-04T07:43:53.348Z,92.7
2018-11-04T07:44:53.328Z,82.7
2018-11-04T07:45:53.380Z,81.2
2018-11-04T07:46:53.382Z,80.5
2018-11-04T07:47:53.492Z,80.3
2018-11-04T07:48:55.725Z,84.1
2018-11-04T07:49:53.606Z,89.7
2018-11-04T07:50:53.662Z,91.7
2018-11-04T07:51:53.631Z,102.6
2018-11-04T07:52:54.803Z,100.2
2018-11-04T07:53:53.589Z,104.7
2018-11-04T07:54:53.612Z,110.1
2018-11-04T07:55:53.704Z,97.1
2018-11-04T07:56:53.770Z,97.7
2018-11-04T07:57:53.535Z,88.2
2018-11-04T07:58:53.583Z,83.8
2018-11-04T07:59:53.636Z,82.3
2018-11-04T08:00:56.024Z,68.9
2018-11-04T08:01:53.847Z,55.7
2018-11-04T08:02:53.597Z,44.3
2018-11-04T08:03:56.931Z,63.2
2018-11-04T08:04:53.713Z,90.1
2018-11-04T08:05:54.666Z,91.4
2018-11-04T08:07:00.531Z,99.5
2018-11-04T08:07:53.638Z,98.3
2018-11-04T08:08:53.602Z,106
2018-11-04T08:09:53.596Z,98.3
2018-11-04T08:10:53.646Z,92
2018-11-04T08:11:53.590Z,97.6
2018-11-04T08:12:56.000Z,101.2
2018-11-04T08:13:53.483Z,102.6
2018-11-04T08:14:58.812Z,114.6
2018-11-04T08:15:53.695Z,103.5
2018-11-04T08:16:53.847Z,105.6
2018-11-04T08:17:53.471Z,114.2
2018-11-04T08:18:53.635Z,119.6
2018-11-04T08:19:53.617Z,118.4
2018-11-04T08:20:55.353Z,123
2018-11-04T08:21:53.585Z,116.1
2018-11-04T08:22:53.539Z,120.4
2018-11-04T08:23:53.646Z,116.9
2018-11-04T08:24:55.586Z,112.1
2018-11-04T08:25:57.802Z,118.5
2018-11-04T08:26:53.607Z,118.7
2018-11-04T08:27:53.900Z,122.1
2018-11-04T08:28:53.557Z,120.1
2018-11-04T08:29:53.497Z,109.1
2018-11-04T08:30:53.468Z,122
2018-11-04T08:31:53.522Z,123.6
2018-11-04T08:32:53.530Z,124.4
2018-11-04T08:33:53.716Z,125.8
2018-11-04T08:34:53.660Z,123.2
2018-11-04T08:35:53.680Z,128
2018-11-04T08:36:56.305Z,143.3
2018-11-04T08:37:53.559Z,139.7
2018-11-04T08:38:53.728Z,129.4
2018-11-04T08:39:53.750Z,112
2018-11-04T08:40:53.645Z,109.9
2018-11-04T08:41:53.513Z,107.5
2018-11-04T08:42:53.718Z,113.4
2018-11-04T08:43:55.821Z,119.2
2018-11-04T08:44:53.449Z,122.6
2018-11-04T08:45:55.715Z,124.2
2018-11-04T08:47:00.113Z,125.7
2018-11-04T08:47:53.426Z,125.3
2018-11-04T08:48:53.528Z,145.2
2018-11-04T08:49:53.432Z,158.9
2018-11-04T08:50:53.627Z,165
2018-11-04T08:51:53.514Z,152
2018-11-04T08:53:04.462Z,137.4
2018-11-04T08:53:53.737Z,130.6
2018-11-04T08:54:53.504Z,127.6
2018-11-04T08:55:53.453Z,126.2
2018-11-04T08:56:53.495Z,125.6
2018-11-04T08:57:53.704Z,131.1
2018-11-04T08:58:53.830Z,127.8
2018-11-04T08:59:54.003Z,133.8
2018-11-04T09:00:56.974Z,129
2018-11-04T09:01:53.620Z,126.5
2018-11-04T09:02:55.909Z,127.9
2018-11-04T09:03:57.443Z,120.6
2018-11-04T09:04:53.331Z,130
2018-11-04T09:05:55.468Z,127.9
2018-11-04T09:06:53.680Z,125.2
2018-11-04T09:07:58.122Z,123.7
2018-11-04T09:08:54.848Z,124.4
2018-11-04T09:09:55.835Z,125.7
2018-11-04T09:11:01.188Z,125.3
2018-11-04T09:11:56.610Z,132.2
2018-11-04T09:12:53.580Z,129.4
2018-11-04T09:13:55.599Z,126.7
2018-11-04T09:14:56.863Z,125.8
2018-11-04T09:15:53.571Z,124.8
2018-11-04T09:16:53.625Z,119.4
2018-11-04T09:17:53.569Z,121
2018-11-04T09:18:53.579Z,122.4
2018-11-04T09:19:53.671Z,115.8
2018-11-04T09:20:53.492Z,116.1
2018-11-04T09:21:54.049Z,122.9
2018-11-04T09:22:53.579Z,134.9
2018-11-04T09:23:53.489Z,103
2018-11-04T09:24:53.787Z,115.2
2018-11-04T09:25:53.285Z,120.8
2018-11-04T09:26:53.293Z,111.2
2018-11-04T09:27:53.329Z,98.2
2018-11-04T09:28:53.414Z,109.8
2018-11-04T09:29:53.331Z,118.2
2018-11-04T09:30:53.351Z,121.9
2018-11-04T09:31:53.274Z,146.1
2018-11-04T09:32:53.303Z,159.4
2018-11-04T09:33:53.312Z,165.3
2018-11-04T09:34:53.632Z,167.8
2018-11-04T09:35:53.623Z,169
2018-11-04T09:36:53.318Z,169.5
2018-11-04T09:37:53.312Z,138.5
2018-11-04T09:38:53.295Z,115.7
2018-11-04T09:39:53.361Z,120.9
2018-11-04T09:40:53.289Z,123.2
2018-11-04T09:41:54.825Z,108.7
2018-11-04T09:42:53.409Z,117.7
2018-11-04T09:43:53.309Z,121.6
2018-11-04T09:44:53.311Z,123.5
2018-11-04T09:45:53.332Z,124.3
2018-11-04T09:46:53.350Z,124.7
2018-11-04T09:47:53.260Z,124.8
2018-11-04T09:48:53.279Z,124.9
2018-11-04T09:49:53.502Z,125
2018-11-04T09:50:53.287Z,125
2018-11-04T09:51:53.348Z,125
2018-11-04T09:52:54.194Z,125
2018-11-04T09:53:53.266Z,106
2018-11-04T09:54:56.381Z,93.6
2018-11-04T09:55:53.294Z,86.8
2018-11-04T09:56:53.439Z,83.1
2018-11-04T09:57:53.403Z,88.5
2018-11-04T09:58:55.333Z,98.2
2018-11-04T09:59:53.257Z,113
2018-11-04T10:00:53.561Z,119.5
2018-11-04T10:01:53.274Z,122.5
2018-11-04T10:02:53.366Z,123.8
2018-11-04T10:03:53.318Z,124.5
2018-11-04T10:04:53.341Z,124.7
2018-11-04T10:05:53.341Z,124.9
2018-11-04T10:06:53.387Z,135.4
2018-11-04T10:07:53.253Z,153.9
2018-11-04T10:08:53.298Z,163
2018-11-04T10:09:53.479Z,166.7
2018-11-04T10:10:53.302Z,160.1
2018-11-04T10:11:53.298Z,141.2
2018-11-04T10:12:53.341Z,132.3
2018-11-04T10:13:53.296Z,135.6
2018-11-04T10:14:53.332Z,130.6
2018-11-04T10:15:53.273Z,127.6
2018-11-04T10:16:53.317Z,126.2
2018-11-04T10:17:53.401Z,125.6
2018-11-04T10:18:58.884Z,135.8
2018-11-04T10:19:53.571Z,136.3
2018-11-04T10:20:53.795Z,125.5
2018-11-04T10:21:53.324Z,101.4
2018-11-04T10:22:53.283Z,104.1
2018-11-04T10:23:53.402Z,101.3
2018-11-04T10:24:53.276Z,90.4
2018-11-04T10:25:55.720Z,91.9
2018-11-04T10:26:53.256Z,109.7
2018-11-04T10:27:53.341Z,116
2018-11-04T10:28:53.323Z,117.6
2018-11-04T10:29:53.268Z,103.3
2018-11-04T10:30:53.294Z,111.2
2018-11-04T10:31:53.275Z,116.2
2018-11-04T10:32:53.340Z,101.9
2018-11-04T10:33:53.254Z,98.8
2018-11-04T10:34:53.272Z,113.1
2018-11-04T10:35:53.332Z,122
2018-11-04T10:36:53.299Z,123.7
2018-11-04T10:37:53.252Z,120.2
2018-11-04T10:38:53.344Z,118.2
2018-11-04T10:39:53.273Z,97.9
2018-11-04T10:40:53.272Z,100.2
2018-11-04T10:41:53.729Z,111.6
2018-11-04T10:42:53.260Z,119
2018-11-04T10:43:53.372Z,121.8
2018-11-04T10:44:53.308Z,97.5
2018-11-04T10:45:53.247Z,95.6
2018-11-04T10:46:53.242Z,87.1
2018-11-04T10:47:53.320Z,80.3
2018-11-04T10:48:53.353Z,81.9
2018-11-04T10:49:53.434Z,75
2018-11-04T10:50:53.356Z,88.1
2018-11-04T10:51:53.273Z,93.3
2018-11-04T10:52:56.664Z,99.6
2018-11-04T10:53:53.242Z,107.9
2018-11-04T10:54:53.304Z,94.4
2018-11-04T10:55:53.633Z,101
2018-11-04T10:56:53.319Z,96.9
2018-11-04T10:57:53.351Z,102
2018-11-04T10:58:53.351Z,96.3
2018-11-04T10:59:53.311Z,90
2018-11-04T11:00:53.263Z,84.7
2018-11-04T11:01:53.303Z,82.1
2018-11-04T11:02:53.346Z,81
2018-11-04T11:04:02.716Z,105.3
2018-11-04T11:04:53.400Z,116.3
2018-11-04T11:05:53.298Z,121.1
2018-11-04T11:06:53.327Z,123.5
2018-11-04T11:07:53.373Z,123.5
2018-11-04T11:08:58.794Z,121.7
2018-11-04T11:09:53.393Z,123.8
2018-11-04T11:10:53.415Z,121.7
2018-11-04T11:11:55.812Z,115.7
2018-11-04T11:12:57.422Z,122.4
2018-11-04T11:13:59.166Z,126.9
2018-11-04T11:14:57.580Z,117.9
2018-11-04T11:15:57.503Z,119.7
2018-11-04T11:16:58.510Z,114.5
2018-11-04T11:17:57.389Z,105.5
2018-11-04T11:18:58.818Z,130.6
2018-11-04T11:20:02.544Z,127.2
2018-11-04T11:20:58.586Z,120.6
2018-11-04T11:21:59.677Z,120.9
2018-11-04T11:22:57.553Z,100.9
2018-11-04T11:23:59.627Z,89.5
2018-11-04T11:24:53.335Z,86.3
2018-11-04T11:25:54.121Z,92.8
2018-11-04T11:26:53.539Z,110.1
2018-11-04T11:27:56.243Z,81.6
2018-11-04T11:28:55.398Z,110.6
2018-11-04T11:29:56.264Z,111.4
2018-11-04T11:31:07.520Z,118.3
2018-11-04T11:31:53.311Z,119
2018-11-04T11:32:53.402Z,101.9
2018-11-04T11:33:53.288Z,90.1
2018-11-04T11:34:53.408Z,84.6
2018-11-04T11:35:53.339Z,82.1
2018-11-04T11:36:53.270Z,81
2018-11-04T11:37:53.506Z,80.5
2018-11-04T11:38:53.284Z,80.2
2018-11-04T11:39:53.343Z,80.1
2018-11-04T11:40:53.391Z,82.8
2018-11-04T11:41:53.353Z,91
2018-11-04T11:42:53.423Z,89.5
2018-11-04T11:43:53.377Z,88.6
2018-11-04T11:44:53.495Z,96.1
2018-11-04T11:45:53.377Z,99.5
2018-11-04T11:46:53.355Z,106.4
2018-11-04T11:47:53.345Z,102.4
2018-11-04T11:48:53.295Z,114.5
2018-11-04T11:49:53.311Z,120.3
2018-11-04T11:50:53.404Z,122.8
2018-11-04T11:51:57.570Z,121.9
2018-11-04T11:53:02.056Z,123.5
2018-11-04T11:53:57.769Z,124.3
2018-11-04T11:54:58.436Z,124.7
2018-11-04T11:55:53.299Z,124.9
2018-11-04T11:56:53.248Z,124.9
2018-11-04T11:57:53.263Z,125
2018-11-04T11:58:53.359Z,125
2018-11-04T11:59:53.287Z,118
2018-11-04T12:00:53.315Z,106.1
2018-11-04T12:01:53.321Z,92.2
2018-11-04T12:02:53.279Z,85.5
2018-11-04T12:03:53.322Z,82.5
2018-11-04T12:04:53.266Z,81.2
2018-11-04T12:05:53.392Z,95
2018-11-04T12:06:53.303Z,108.9
2018-11-04T12:07:53.245Z,105.1
2018-11-04T12:08:53.249Z,106.1
2018-11-04T12:09:53.263Z,105.8
2018-11-04T12:10:53.377Z,103.2
2018-11-04T12:11:53.306Z,102.8
2018-11-04T12:13:00.358Z,102.6
2018-11-04T12:13:58.072Z,102.6
2018-11-04T12:14:58.573Z,90.5
2018-11-04T12:15:54.773Z,84.3
2018-11-04T12:16:54.575Z,77.1
2018-11-04T12:17:54.648Z,77
2018-11-04T12:18:57.472Z,65
2018-11-04T12:19:53.286Z,59
2018-11-04T12:20:53.284Z,47.9
2018-11-04T12:21:53.285Z,40.7
2018-11-04T12:22:53.220Z,37.7
2018-11-04T12:23:56.924Z,41.4
2018-11-04T12:24:57.334Z,42.6
2018-11-04T12:25:58.168Z,59.5
2018-11-04T12:26:54.812Z,70.7
2018-11-04T12:27:55.368Z,68.5
2018-11-04T12:28:54.519Z,67.9
2018-11-04T12:29:54.239Z,57.7
2018-11-04T12:30:57.038Z,40.8
2018-11-04T12:31:53.346Z,37.6
2018-11-04T12:32:59.239Z,36.2
2018-11-04T12:33:57.890Z,31
2018-11-04T12:34:59.798Z,35.4
2018-11-04T12:36:00.174Z,35.2
2018-11-04T12:36:59.544Z,46.5
2018-11-04T12:37:57.221Z,41.8
2018-11-04T12:38:55.627Z,38.1
2018-11-04T12:39:53.292Z,36.4
2018-11-04T12:40:53.745Z,35.7
2018-11-04T12:42:02.841Z,35.3
2018-11-04T12:42:57.753Z,30
2018-11-04T12:43:57.273Z,77.2
2018-11-04T12:44:58.047Z,107.6
2018-11-04T12:45:58.602Z,64.5
2018-11-04T12:46:57.712Z,45.7
2018-11-04T12:47:58.004Z,39.3
2018-11-04T12:48:58.702Z,38.5
2018-11-04T12:50:00.799Z,36.6
2018-11-04T12:50:56.936Z,84.7
2018-11-04T12:51:59.591Z,78.8
2018-11-04T12:53:01.348Z,83.9
2018-11-04T12:53:56.385Z,106.8
2018-11-04T12:54:54.544Z,117.2
2018-11-04T12:55:55.259Z,121.5
2018-11-04T12:56:53.285Z,123.4
2018-11-04T12:57:57.918Z,124.2
2018-11-04T12:59:02.641Z,104.2
2018-11-04T12:59:55.677Z,92.1
2018-11-04T13:00:53.324Z,85.5
2018-11-04T13:01:53.521Z,82.5
2018-11-04T13:02:53.263Z,78.6
2018-11-04T13:03:57.330Z,70.7
2018-11-04T13:04:53.232Z,64.9
2018-11-04T13:05:54.557Z,46.9
2018-11-04T13:06:53.567Z,40.5
2018-11-04T13:07:57.800Z,50
2018-11-04T13:08:54.299Z,66.6
2018-11-04T13:09:53.237Z,74.1
2018-11-04T13:10:53.488Z,77.3
2018-11-04T13:11:53.419Z,78.7
2018-11-04T13:12:53.438Z,79.4
2018-11-04T13:13:53.209Z,79.7
2018-11-04T13:14:53.802Z,79.9